createdAt,value
2019-03-29T00:00:55.773Z,9.99
2019-03-29T00:01:55.765Z,9.88
2019-03-29T00:02:55.737Z,9.88
2019-03-29T00:03:55.728Z,9.91
2019-03-29T00:04:55.716Z,9.88
2019-03-29T00:05:55.708Z,9.89
2019-03-29T00:06:55.771Z,9.89
2019-03-29T00:07:55.689Z,9.82
2019-03-29T00:08:55.680Z,9.86
2019-03-29T00:09:55.663Z,9.82
2019-03-29T00:10:55.652Z,9.89
2019-03-29T00:11:55.641Z,9.97
2019-03-29T00:12:57.010Z,9.97
2019-03-29T00:13:55.619Z,9.97
2019-03-29T00:14:55.609Z,9.88
2019-03-29T00:15:55.598Z,9.89
2019-03-29T00:16:55.603Z,9.85
2019-03-29T00:17:55.577Z,9.82
2019-03-29T00:18:55.576Z,9.89
2019-03-29T00:19:55.555Z,9.89
2019-03-29T00:20:55.545Z,9.82
2019-03-29T00:21:55.534Z,9.91
2019-03-29T00:22:56.308Z,9.83
2019-03-29T00:24:06.173Z,9.81
2019-03-29T00:24:56.520Z,9.86
2019-03-29T00:25:55.489Z,9.82
2019-03-29T00:26:55.480Z,9.85
2019-03-29T00:27:55.469Z,9.82
2019-03-29T00:28:55.457Z,9.82
2019-03-29T00:29:55.946Z,9.78
2019-03-29T00:30:55.447Z,9.76
2019-03-29T00:31:55.426Z,9.70
2019-03-29T00:32:55.413Z,9.73
2019-03-29T00:33:55.405Z,9.79
2019-03-29T00:34:55.392Z,9.75
2019-03-29T00:35:55.382Z,9.67
2019-03-29T00:36:55.382Z,9.70
2019-03-29T00:37:55.883Z,9.60
2019-03-29T00:38:55.348Z,9.60
2019-03-29T00:39:55.339Z,9.57
2019-03-29T00:40:55.329Z,9.57
2019-03-29T00:41:55.315Z,9.61
2019-03-29T00:42:55.317Z,9.56
2019-03-29T00:43:55.297Z,9.46
2019-03-29T00:44:55.285Z,9.53
2019-03-29T00:45:55.274Z,9.46
2019-03-29T00:46:55.261Z,9.48
2019-03-29T00:47:55.980Z,9.40
2019-03-29T00:48:55.256Z,9.39
2019-03-29T00:49:55.228Z,9.45
2019-03-29T00:50:55.224Z,9.45
2019-03-29T00:51:55.206Z,9.40
2019-03-29T00:52:55.195Z,9.48
2019-03-29T00:53:55.183Z,9.46
2019-03-29T00:54:55.194Z,9.45
2019-03-29T00:55:55.170Z,9.40
2019-03-29T00:56:55.151Z,9.35
2019-03-29T00:57:55.145Z,9.38
2019-03-29T00:58:55.129Z,9.30
2019-03-29T00:59:55.117Z,9.30
2019-03-29T01:00:55.117Z,9.23
2019-03-29T01:01:55.100Z,9.28
2019-03-29T01:02:55.086Z,9.27
2019-03-29T01:03:55.074Z,9.20
2019-03-29T01:04:55.223Z,9.27
2019-03-29T01:05:55.054Z,9.24
2019-03-29T01:06:55.054Z,9.21
2019-03-29T01:08:07.012Z,9.16
2019-03-29T01:08:56.023Z,9.23
2019-03-29T01:09:55.010Z,9.18
2019-03-29T01:10:54.999Z,9.15
2019-03-29T01:11:54.990Z,9.15
2019-03-29T01:12:54.990Z,9.05
2019-03-29T01:13:54.967Z,9.06
2019-03-29T01:14:54.988Z,9.05
2019-03-29T01:15:54.946Z,9.04
2019-03-29T01:16:54.935Z,9.06
2019-03-29T01:17:54.924Z,8.94
2019-03-29T01:18:54.934Z,8.93
2019-03-29T01:19:55.929Z,8.88
2019-03-29T01:20:54.894Z,8.90
2019-03-29T01:21:54.882Z,8.78
2019-03-29T01:22:54.871Z,8.83
2019-03-29T01:23:54.861Z,8.81
2019-03-29T01:24:54.863Z,8.84
2019-03-29T01:25:54.874Z,8.72
2019-03-29T01:26:54.831Z,8.86
2019-03-29T01:27:54.817Z,8.78
2019-03-29T01:28:54.807Z,8.81
2019-03-29T01:29:54.796Z,8.78
2019-03-29T01:30:54.797Z,8.78
2019-03-29T01:31:54.784Z,8.76
2019-03-29T01:32:54.772Z,8.69
2019-03-29T01:33:54.765Z,8.75
2019-03-29T01:34:54.741Z,8.71
2019-03-29T01:35:54.730Z,8.65
2019-03-29T01:36:54.737Z,8.57
2019-03-29T01:37:54.708Z,8.48
2019-03-29T01:38:54.700Z,8.50
2019-03-29T01:39:54.686Z,8.47
2019-03-29T01:40:54.676Z,8.42
2019-03-29T01:41:54.675Z,8.35
2019-03-29T01:42:54.669Z,8.40
2019-03-29T01:43:54.643Z,8.42
2019-03-29T01:44:54.631Z,8.37
2019-03-29T01:45:54.636Z,8.37
2019-03-29T01:46:54.609Z,8.47
2019-03-29T01:47:55.972Z,8.26
2019-03-29T01:48:54.597Z,8.37
2019-03-29T01:49:54.580Z,8.36
2019-03-29T01:50:54.565Z,8.22
2019-03-29T01:51:54.554Z,8.30
2019-03-29T01:52:54.544Z,8.26
2019-03-29T01:53:54.533Z,8.12
2019-03-29T01:54:54.539Z,8.11
2019-03-29T01:55:54.512Z,8.07
2019-03-29T01:56:54.500Z,8.03
2019-03-29T01:57:54.489Z,8.03
2019-03-29T01:58:54.478Z,7.96
2019-03-29T01:59:54.470Z,7.99
2019-03-29T02:00:54.470Z,7.97
2019-03-29T02:01:55.057Z,7.90
2019-03-29T02:02:54.435Z,7.93
2019-03-29T02:03:54.424Z,7.99
2019-03-29T02:04:54.415Z,8.00
2019-03-29T02:05:54.404Z,7.90
2019-03-29T02:06:54.405Z,7.92
2019-03-29T02:07:54.381Z,7.93
2019-03-29T02:08:54.373Z,7.93
2019-03-29T02:09:54.360Z,7.92
2019-03-29T02:10:54.348Z,7.93
2019-03-29T02:11:54.338Z,7.92
2019-03-29T02:12:54.338Z,7.87
2019-03-29T02:13:54.316Z,7.90
2019-03-29T02:14:54.306Z,7.75
2019-03-29T02:15:54.295Z,7.79
2019-03-29T02:16:54.284Z,7.74
2019-03-29T02:17:54.272Z,7.77
2019-03-29T02:18:54.281Z,7.82
2019-03-29T02:19:54.254Z,7.62
2019-03-29T02:20:54.241Z,7.63
2019-03-29T02:21:54.234Z,7.58
2019-03-29T02:22:54.222Z,7.56
2019-03-29T02:23:54.210Z,7.58
2019-03-29T02:24:54.210Z,7.52
2019-03-29T02:25:54.188Z,7.49
2019-03-29T02:26:54.181Z,7.52
2019-03-29T02:27:54.173Z,7.53
2019-03-29T02:28:54.156Z,7.40
2019-03-29T02:29:54.148Z,7.40
2019-03-29T02:30:54.145Z,7.35
2019-03-29T02:31:54.130Z,7.41
2019-03-29T02:32:54.114Z,7.40
2019-03-29T02:33:54.124Z,7.40
2019-03-29T02:34:54.095Z,7.41
2019-03-29T02:35:54.084Z,7.35
2019-03-29T02:36:54.083Z,7.34
2019-03-29T02:37:54.061Z,7.37
2019-03-29T02:38:56.226Z,7.27
2019-03-29T02:39:54.930Z,7.29
2019-03-29T02:40:54.029Z,7.26
2019-03-29T02:41:54.018Z,7.29
2019-03-29T02:42:54.020Z,7.15
2019-03-29T02:43:53.995Z,7.17
2019-03-29T02:44:53.989Z,7.17
2019-03-29T02:45:53.975Z,7.09
2019-03-29T02:46:54.270Z,7.07
2019-03-29T02:47:53.953Z,7.08
2019-03-29T02:48:53.961Z,7.12
2019-03-29T02:49:53.934Z,7.01
2019-03-29T02:50:54.041Z,7.09
2019-03-29T02:51:53.911Z,7.07
2019-03-29T02:52:53.898Z,7.08
2019-03-29T02:53:53.888Z,7.07
2019-03-29T02:54:53.888Z,6.99
2019-03-29T02:55:53.868Z,6.91
2019-03-29T02:56:53.856Z,6.95
2019-03-29T02:57:53.845Z,6.99
2019-03-29T02:58:53.844Z,7.01
2019-03-29T02:59:53.828Z,6.90
2019-03-29T03:00:53.826Z,6.84
2019-03-29T03:01:53.803Z,6.81
2019-03-29T03:02:53.794Z,6.87
2019-03-29T03:03:53.780Z,6.81
2019-03-29T03:04:53.770Z,6.95
2019-03-29T03:05:53.760Z,6.86
2019-03-29T03:06:53.765Z,6.86
2019-03-29T03:07:53.734Z,6.84
2019-03-29T03:09:11.770Z,6.80
2019-03-29T03:09:54.713Z,6.73
2019-03-29T03:10:53.702Z,6.77
2019-03-29T03:11:53.691Z,6.71
2019-03-29T03:12:53.693Z,6.71
2019-03-29T03:13:53.669Z,6.62
2019-03-29T03:14:53.665Z,6.73
2019-03-29T03:15:53.649Z,6.76
2019-03-29T03:16:53.647Z,6.71
2019-03-29T03:17:53.630Z,6.61
2019-03-29T03:18:53.627Z,6.62
2019-03-29T03:19:53.605Z,6.63
2019-03-29T03:20:53.595Z,6.62
2019-03-29T03:21:53.583Z,6.59
2019-03-29T03:22:53.574Z,6.65
2019-03-29T03:23:53.571Z,6.63
2019-03-29T03:24:53.580Z,6.63
2019-03-29T03:25:53.540Z,6.63
2019-03-29T03:26:53.529Z,6.65
2019-03-29T03:27:53.519Z,6.56
2019-03-29T03:28:53.512Z,6.62
2019-03-29T03:29:53.499Z,6.63
2019-03-29T03:30:53.500Z,6.51
2019-03-29T03:31:53.476Z,6.43
2019-03-29T03:32:53.489Z,6.53
2019-03-29T03:33:53.453Z,6.47
2019-03-29T03:34:53.456Z,6.41
2019-03-29T03:35:53.432Z,6.38
2019-03-29T03:36:53.435Z,6.28
2019-03-29T03:37:53.544Z,6.30
2019-03-29T03:38:53.409Z,6.33
2019-03-29T03:39:53.389Z,6.36
2019-03-29T03:40:53.384Z,6.30
2019-03-29T03:41:53.374Z,6.26
2019-03-29T03:42:53.369Z,6.11
2019-03-29T03:43:53.350Z,6.14
2019-03-29T03:44:53.342Z,6.16
2019-03-29T03:45:53.325Z,6.28
2019-03-29T03:46:53.312Z,6.13
2019-03-29T03:47:53.302Z,6.28
2019-03-29T03:48:53.313Z,6.21
2019-03-29T03:49:53.281Z,6.13
2019-03-29T03:50:53.272Z,6.13
2019-03-29T03:51:53.260Z,6.13
2019-03-29T03:52:53.253Z,6.04
2019-03-29T03:53:53.245Z,6.11
2019-03-29T03:54:53.244Z,6.00
2019-03-29T03:55:53.221Z,6.01
2019-03-29T03:56:53.206Z,6.09
2019-03-29T03:57:57.443Z,5.98
2019-03-29T03:58:53.188Z,6.01
2019-03-29T03:59:53.174Z,5.89
2019-03-29T04:00:53.187Z,5.89
2019-03-29T04:01:53.153Z,5.91
2019-03-29T04:02:53.146Z,5.93
2019-03-29T04:03:53.136Z,6.00
2019-03-29T04:04:53.125Z,5.98
2019-03-29T04:05:53.112Z,6.06
2019-03-29T04:06:53.113Z,6.03
2019-03-29T04:07:53.090Z,6.09
2019-03-29T04:08:53.081Z,6.03
2019-03-29T04:09:53.072Z,6.01
2019-03-29T04:10:53.059Z,5.98
2019-03-29T04:11:53.050Z,5.96
2019-03-29T04:12:53.047Z,5.88
2019-03-29T04:13:53.070Z,5.89
2019-03-29T04:14:53.018Z,5.88
2019-03-29T04:15:53.076Z,5.89
2019-03-29T04:16:52.996Z,5.88
2019-03-29T04:17:52.986Z,5.88
2019-03-29T04:18:52.993Z,5.86
2019-03-29T04:19:52.963Z,5.78
2019-03-29T04:20:52.956Z,5.75
2019-03-29T04:21:52.943Z,5.78
2019-03-29T04:22:52.933Z,5.77
2019-03-29T04:23:52.922Z,5.83
2019-03-29T04:24:53.031Z,5.75
2019-03-29T04:25:52.908Z,5.74
2019-03-29T04:26:52.889Z,5.77
2019-03-29T04:27:52.880Z,5.86
2019-03-29T04:29:04.073Z,5.92
2019-03-29T04:29:53.867Z,5.82
2019-03-29T04:30:52.871Z,5.78
2019-03-29T04:31:52.837Z,5.83
2019-03-29T04:32:52.826Z,5.82
2019-03-29T04:33:52.816Z,5.77
2019-03-29T04:34:52.804Z,5.67
2019-03-29T04:35:52.808Z,5.67
2019-03-29T04:36:52.783Z,5.48
2019-03-29T04:37:52.772Z,5.49
2019-03-29T04:38:52.761Z,5.60
2019-03-29T04:40:06.479Z,5.49
2019-03-29T04:40:53.754Z,5.49
2019-03-29T04:41:52.729Z,5.43
2019-03-29T04:42:52.718Z,5.45
2019-03-29T04:43:52.707Z,5.46
2019-03-29T04:44:52.696Z,5.43
2019-03-29T04:45:52.687Z,5.49
2019-03-29T04:46:52.692Z,5.31
2019-03-29T04:47:52.663Z,5.35
2019-03-29T04:48:52.652Z,5.31
2019-03-29T04:49:52.640Z,5.34
2019-03-29T04:50:52.631Z,5.25
2019-03-29T04:51:52.622Z,5.17
2019-03-29T04:52:52.631Z,5.20
2019-03-29T04:53:52.597Z,5.22
2019-03-29T04:54:52.588Z,5.19
2019-03-29T04:55:52.581Z,5.13
2019-03-29T04:56:52.565Z,5.12
2019-03-29T04:57:52.554Z,5.22
2019-03-29T04:58:52.556Z,5.23
2019-03-29T04:59:52.532Z,5.23
2019-03-29T05:00:52.523Z,5.12
2019-03-29T05:01:52.511Z,5.05
2019-03-29T05:02:52.502Z,5.14
2019-03-29T05:03:52.489Z,5.13
2019-03-29T05:04:52.491Z,5.25
2019-03-29T05:05:52.467Z,5.25
2019-03-29T05:06:52.456Z,5.28
2019-03-29T05:07:52.445Z,5.25
2019-03-29T05:08:52.435Z,5.28
2019-03-29T05:09:52.439Z,5.17
2019-03-29T05:10:52.423Z,5.17
2019-03-29T05:11:52.402Z,5.14
2019-03-29T05:12:52.394Z,5.01
2019-03-29T05:13:52.385Z,5.09
2019-03-29T05:14:52.369Z,5.09
2019-03-29T05:15:52.358Z,5.02
2019-03-29T05:16:52.356Z,4.98
2019-03-29T05:17:52.336Z,5.02
2019-03-29T05:18:52.325Z,4.99
2019-03-29T05:19:52.313Z,4.99
2019-03-29T05:20:52.304Z,4.98
2019-03-29T05:21:52.293Z,4.98
2019-03-29T05:22:52.293Z,5.04
2019-03-29T05:23:52.277Z,5.07
2019-03-29T05:24:52.259Z,5.13
2019-03-29T05:25:52.248Z,5.09
2019-03-29T05:26:52.276Z,5.05
2019-03-29T05:27:52.226Z,5.07
2019-03-29T05:28:52.228Z,5.09
2019-03-29T05:29:52.205Z,5.09
2019-03-29T05:30:52.194Z,5.04
2019-03-29T05:31:53.653Z,5.02
2019-03-29T05:32:52.172Z,5.01
2019-03-29T05:33:52.160Z,5.09
2019-03-29T05:34:52.161Z,5.12
2019-03-29T05:35:52.138Z,5.02
2019-03-29T05:36:52.127Z,5.05
2019-03-29T05:37:52.120Z,5.04
2019-03-29T05:38:52.106Z,5.04
2019-03-29T05:39:52.099Z,4.96
2019-03-29T05:40:52.097Z,5.02
2019-03-29T05:41:52.076Z,5.01
2019-03-29T05:42:52.065Z,5.05
2019-03-29T05:43:52.052Z,5.01
2019-03-29T05:44:52.042Z,5.04
2019-03-29T05:45:52.028Z,5.12
2019-03-29T05:46:52.033Z,5.12
2019-03-29T05:47:52.012Z,5.09
2019-03-29T05:48:51.996Z,5.12
2019-03-29T05:49:51.986Z,5.17
2019-03-29T05:50:51.974Z,5.22
2019-03-29T05:51:51.963Z,5.34
2019-03-29T05:52:51.962Z,5.53
2019-03-29T05:53:51.941Z,5.52
2019-03-29T05:54:51.930Z,5.68
2019-03-29T05:55:51.927Z,5.89
2019-03-29T05:56:51.921Z,5.95
2019-03-29T05:57:51.899Z,6.03
2019-03-29T05:58:51.899Z,6.10
2019-03-29T05:59:51.878Z,6.21
2019-03-29T06:00:51.869Z,6.35
2019-03-29T06:01:51.858Z,6.43
2019-03-29T06:02:51.846Z,6.47
2019-03-29T06:03:51.835Z,6.62
2019-03-29T06:04:51.834Z,6.68
2019-03-29T06:05:51.818Z,6.84
2019-03-29T06:06:51.803Z,6.83
2019-03-29T06:07:51.793Z,6.90
2019-03-29T06:08:51.783Z,7.01
2019-03-29T06:09:51.773Z,7.07
2019-03-29T06:10:51.769Z,7.20
2019-03-29T06:11:51.748Z,7.22
2019-03-29T06:12:51.738Z,7.22
2019-03-29T06:13:51.727Z,7.22
2019-03-29T06:14:51.715Z,7.35
2019-03-29T06:15:51.707Z,7.35
2019-03-29T06:16:51.709Z,7.38
2019-03-29T06:17:51.684Z,7.38
2019-03-29T06:18:51.673Z,7.41
2019-03-29T06:19:51.663Z,7.53
2019-03-29T06:20:51.653Z,7.63
2019-03-29T06:21:51.642Z,7.60
2019-03-29T06:22:51.671Z,7.56
2019-03-29T06:23:51.619Z,7.63
2019-03-29T06:24:51.608Z,7.79
2019-03-29T06:25:51.598Z,7.85
2019-03-29T06:26:51.586Z,7.85
2019-03-29T06:27:51.576Z,7.90
2019-03-29T06:28:51.575Z,8.04
2019-03-29T06:29:51.554Z,8.12
2019-03-29T06:30:51.544Z,8.10
2019-03-29T06:31:51.533Z,8.11
2019-03-29T06:32:51.523Z,8.32
2019-03-29T06:33:51.515Z,8.25
2019-03-29T06:34:51.510Z,8.14
2019-03-29T06:35:51.489Z,8.28
2019-03-29T06:36:51.480Z,8.36
2019-03-29T06:37:51.467Z,8.44
2019-03-29T06:38:51.456Z,8.55
2019-03-29T06:39:51.446Z,8.60
2019-03-29T06:41:02.213Z,8.73
2019-03-29T06:41:52.424Z,8.79
2019-03-29T06:42:51.412Z,8.84
2019-03-29T06:43:51.402Z,8.91
2019-03-29T06:44:51.391Z,8.91
2019-03-29T06:45:51.380Z,8.86
2019-03-29T06:46:51.380Z,8.94
2019-03-29T06:47:51.358Z,9.10
2019-03-29T06:48:51.347Z,9.09
2019-03-29T06:49:51.335Z,9.16
2019-03-29T06:50:51.489Z,9.20
2019-03-29T06:51:51.317Z,9.20
2019-03-29T06:52:51.315Z,9.23
2019-03-29T06:53:52.765Z,9.34
2019-03-29T06:54:51.283Z,9.38
2019-03-29T06:55:51.272Z,9.49
2019-03-29T06:56:51.261Z,9.56
2019-03-29T06:57:51.252Z,9.64
2019-03-29T06:58:51.252Z,9.73
2019-03-29T06:59:51.228Z,9.79
2019-03-29T07:00:51.223Z,9.81
2019-03-29T07:01:51.210Z,9.96
2019-03-29T07:02:51.195Z,9.96
2019-03-29T07:03:51.184Z,9.93
2019-03-29T07:04:51.183Z,10.15
2019-03-29T07:05:51.162Z,10.19
2019-03-29T07:06:51.152Z,10.30
2019-03-29T07:07:51.141Z,10.36
2019-03-29T07:08:51.132Z,10.40
2019-03-29T07:09:51.119Z,10.47
2019-03-29T07:10:51.121Z,10.58
2019-03-29T07:11:51.104Z,10.62
2019-03-29T07:12:51.089Z,10.73
2019-03-29T07:13:57.164Z,10.89
2019-03-29T07:14:52.064Z,11.02
2019-03-29T07:15:51.059Z,11.02
2019-03-29T07:16:51.053Z,11.24
2019-03-29T07:17:51.034Z,11.38
2019-03-29T07:18:51.027Z,11.52
2019-03-29T07:19:51.010Z,11.62
2019-03-29T07:20:50.999Z,11.70
2019-03-29T07:21:50.988Z,11.67
2019-03-29T07:22:50.988Z,11.85
2019-03-29T07:23:50.967Z,11.86
2019-03-29T07:24:50.957Z,11.87
2019-03-29T07:25:50.948Z,11.68
2019-03-29T07:26:50.936Z,11.71
2019-03-29T07:27:52.419Z,11.87
2019-03-29T07:28:50.924Z,11.85
2019-03-29T07:29:50.902Z,12.05
2019-03-29T07:30:50.894Z,12.08
2019-03-29T07:31:53.194Z,12.12
2019-03-29T07:32:50.870Z,12.16
2019-03-29T07:33:50.859Z,12.31
2019-03-29T07:34:50.860Z,12.39
2019-03-29T07:35:50.838Z,12.67
2019-03-29T07:36:50.826Z,12.62
2019-03-29T07:37:50.815Z,12.54
2019-03-29T07:38:50.803Z,12.56
2019-03-29T07:39:53.751Z,12.51
2019-03-29T07:40:50.793Z,12.52
2019-03-29T07:41:50.772Z,12.52
2019-03-29T07:42:50.763Z,12.39
2019-03-29T07:43:50.749Z,12.62
2019-03-29T07:44:50.741Z,12.74
2019-03-29T07:45:50.727Z,12.69
2019-03-29T07:46:50.727Z,12.87
2019-03-29T07:47:50.706Z,12.89
2019-03-29T07:48:50.695Z,13.03
2019-03-29T07:49:50.685Z,12.99
2019-03-29T07:50:50.673Z,13.00
2019-03-29T07:51:50.665Z,13.04
2019-03-29T07:52:50.672Z,13.03
2019-03-29T07:53:50.644Z,13.03
2019-03-29T07:54:50.696Z,12.99
2019-03-29T07:55:50.619Z,13.11
2019-03-29T07:56:50.609Z,13.17
2019-03-29T07:57:50.603Z,13.25
2019-03-29T07:58:50.618Z,13.32
2019-03-29T07:59:50.625Z,13.38
2019-03-29T08:00:50.565Z,13.49
2019-03-29T08:01:50.554Z,13.67
2019-03-29T08:02:50.557Z,13.73
2019-03-29T08:03:51.436Z,13.83
2019-03-29T08:04:51.285Z,13.92
2019-03-29T08:05:50.510Z,13.94
2019-03-29T08:06:50.500Z,13.94
2019-03-29T08:07:50.489Z,14.06
2019-03-29T08:08:50.483Z,14.14
2019-03-29T08:09:50.469Z,14.25
2019-03-29T08:10:53.608Z,14.38
2019-03-29T08:11:50.447Z,14.47
2019-03-29T08:12:50.435Z,14.64
2019-03-29T08:13:50.423Z,14.65
2019-03-29T08:14:50.437Z,14.68
2019-03-29T08:15:50.402Z,14.71
2019-03-29T08:16:50.402Z,14.84
2019-03-29T08:17:50.380Z,14.71
2019-03-29T08:18:50.369Z,14.84
2019-03-29T08:20:12.902Z,14.80
2019-03-29T08:20:51.347Z,14.83
2019-03-29T08:21:50.337Z,14.90
2019-03-29T08:22:50.367Z,14.98
2019-03-29T08:23:50.318Z,15.03
2019-03-29T08:24:50.305Z,15.01
2019-03-29T08:25:50.295Z,15.09
2019-03-29T08:26:50.286Z,15.15
2019-03-29T08:27:50.273Z,15.31
2019-03-29T08:28:50.274Z,15.23
2019-03-29T08:29:50.253Z,15.27
2019-03-29T08:30:50.242Z,15.24
2019-03-29T08:31:50.231Z,15.24
2019-03-29T08:32:50.224Z,15.27
2019-03-29T08:33:50.209Z,15.27
2019-03-29T08:34:50.221Z,15.36
2019-03-29T08:35:50.188Z,15.42
2019-03-29T08:36:50.176Z,15.41
2019-03-29T08:37:50.165Z,15.51
2019-03-29T08:38:50.156Z,15.46
2019-03-29T08:39:50.146Z,15.41
2019-03-29T08:40:50.156Z,15.51
2019-03-29T08:42:00.175Z,15.60
2019-03-29T08:42:51.118Z,15.70
2019-03-29T08:43:50.099Z,15.75
2019-03-29T08:44:50.090Z,15.72
2019-03-29T08:45:50.089Z,15.82
2019-03-29T08:46:50.080Z,15.85
2019-03-29T08:47:50.058Z,15.85
2019-03-29T08:48:50.047Z,16.03
2019-03-29T08:49:50.038Z,16.06
2019-03-29T08:50:50.026Z,16.14
2019-03-29T08:51:50.015Z,16.22
2019-03-29T08:52:50.027Z,16.20
2019-03-29T08:53:49.997Z,16.16
2019-03-29T08:54:51.324Z,16.33
2019-03-29T08:55:49.973Z,16.23
2019-03-29T08:56:49.966Z,16.37
2019-03-29T08:57:49.951Z,16.25
2019-03-29T08:58:50.196Z,16.31
2019-03-29T08:59:49.930Z,16.15
2019-03-29T09:00:49.920Z,16.20
2019-03-29T09:01:49.910Z,16.20
2019-03-29T09:02:49.899Z,16.23
2019-03-29T09:04:02.636Z,16.31
2019-03-29T09:04:50.890Z,16.41
2019-03-29T09:05:49.866Z,16.27
2019-03-29T09:06:53.802Z,16.26
2019-03-29T09:07:49.845Z,16.40
2019-03-29T09:08:49.836Z,16.44
2019-03-29T09:09:49.823Z,16.53
2019-03-29T09:10:49.833Z,16.71
2019-03-29T09:11:49.804Z,16.55
2019-03-29T09:12:49.792Z,16.55
2019-03-29T09:13:49.785Z,16.48
2019-03-29T09:14:50.262Z,16.50
2019-03-29T09:15:49.760Z,16.52
2019-03-29T09:16:49.769Z,16.60
2019-03-29T09:17:49.739Z,16.44
2019-03-29T09:18:49.730Z,16.62
2019-03-29T09:19:49.717Z,16.60
2019-03-29T09:20:49.708Z,16.70
2019-03-29T09:21:49.696Z,16.75
2019-03-29T09:22:49.701Z,16.83
2019-03-29T09:23:49.677Z,16.78
2019-03-29T09:24:49.665Z,16.71
2019-03-29T09:25:49.658Z,16.88
2019-03-29T09:26:49.644Z,16.86
2019-03-29T09:27:49.634Z,16.86
2019-03-29T09:28:49.633Z,16.99
2019-03-29T09:29:49.615Z,17.04
2019-03-29T09:30:49.602Z,17.04
2019-03-29T09:31:49.591Z,17.06
2019-03-29T09:32:51.520Z,16.81
2019-03-29T09:33:49.570Z,16.88
2019-03-29T09:34:49.577Z,16.68
2019-03-29T09:35:49.550Z,16.73
2019-03-29T09:36:49.538Z,16.60
2019-03-29T09:37:49.527Z,16.38
2019-03-29T09:38:49.516Z,16.26
2019-03-29T09:39:49.508Z,16.26
2019-03-29T09:40:58.389Z,16.25
2019-03-29T09:41:50.490Z,16.20
2019-03-29T09:42:55.794Z,16.23
2019-03-29T09:43:53.877Z,16.26
2019-03-29T09:44:49.453Z,16.27
2019-03-29T09:45:49.444Z,16.34
2019-03-29T09:46:49.440Z,16.27
2019-03-29T09:47:49.419Z,16.31
2019-03-29T09:48:49.408Z,16.25
2019-03-29T09:49:49.398Z,16.23
2019-03-29T09:50:50.918Z,16.23
2019-03-29T09:51:49.385Z,16.30
2019-03-29T09:52:51.361Z,16.26
2019-03-29T09:53:49.354Z,16.31
2019-03-29T09:54:49.344Z,16.23
2019-03-29T09:55:49.333Z,16.34
2019-03-29T09:56:49.322Z,16.25
2019-03-29T09:57:49.313Z,16.31
2019-03-29T09:58:49.311Z,16.18
2019-03-29T09:59:49.295Z,16.14
2019-03-29T10:00:49.285Z,16.23
2019-03-29T10:01:49.268Z,16.35
2019-03-29T10:02:49.257Z,16.34
2019-03-29T10:03:49.246Z,16.22
2019-03-29T10:04:49.246Z,16.33
2019-03-29T10:05:49.234Z,16.33
2019-03-29T10:06:49.214Z,16.33
2019-03-29T10:07:49.208Z,16.26
2019-03-29T10:08:49.195Z,16.40
2019-03-29T10:09:49.186Z,16.35
2019-03-29T10:10:49.180Z,16.34
2019-03-29T10:11:49.165Z,16.37
2019-03-29T10:12:49.149Z,16.34
2019-03-29T10:13:49.140Z,16.33
2019-03-29T10:14:49.128Z,16.30
2019-03-29T10:15:51.299Z,16.31
2019-03-29T10:16:49.115Z,16.22
2019-03-29T10:17:49.093Z,16.34
2019-03-29T10:18:49.083Z,16.31
2019-03-29T10:19:50.014Z,16.33
2019-03-29T10:20:49.063Z,16.31
2019-03-29T10:21:49.050Z,16.30
2019-03-29T10:22:49.067Z,16.22
2019-03-29T10:23:49.036Z,16.18
2019-03-29T10:24:49.020Z,16.12
2019-03-29T10:25:49.008Z,16.25
2019-03-29T10:26:48.998Z,16.18
2019-03-29T10:27:48.986Z,16.16
2019-03-29T10:28:48.989Z,16.18
2019-03-29T10:29:48.962Z,16.09
2019-03-29T10:30:48.953Z,16.14
2019-03-29T10:31:48.940Z,16.12
2019-03-29T10:32:49.029Z,16.14
2019-03-29T10:33:49.434Z,16.16
2019-03-29T10:34:48.920Z,16.25
2019-03-29T10:35:53.052Z,16.11
2019-03-29T10:36:48.887Z,16.06
2019-03-29T10:37:48.876Z,16.11
2019-03-29T10:38:48.868Z,16.27
2019-03-29T10:39:48.854Z,16.20
2019-03-29T10:40:48.855Z,16.23
2019-03-29T10:41:48.833Z,16.20
2019-03-29T10:42:57.718Z,16.14
2019-03-29T10:43:49.809Z,16.15
2019-03-29T10:44:49.552Z,16.14
2019-03-29T10:45:48.790Z,16.06
2019-03-29T10:46:48.790Z,16.04
2019-03-29T10:47:48.776Z,16.04
2019-03-29T10:48:48.761Z,16.04
2019-03-29T10:49:48.747Z,16.15
2019-03-29T10:50:48.737Z,16.09
2019-03-29T10:51:48.725Z,16.06
2019-03-29T10:52:48.731Z,16.06
2019-03-29T10:53:48.702Z,16.04
2019-03-29T10:54:49.996Z,16.01
2019-03-29T10:55:48.681Z,16.03
2019-03-29T10:56:48.670Z,16.03
2019-03-29T10:57:48.659Z,16.06
2019-03-29T10:58:48.660Z,16.04
2019-03-29T10:59:48.640Z,16.15
2019-03-29T11:00:48.631Z,16.25
2019-03-29T11:01:48.618Z,16.20
2019-03-29T11:02:48.609Z,16.14
2019-03-29T11:03:48.596Z,16.18
2019-03-29T11:04:48.600Z,16.22
2019-03-29T11:05:48.573Z,16.07
2019-03-29T11:06:48.563Z,16.04
2019-03-29T11:07:48.552Z,16.16
2019-03-29T11:08:48.543Z,16.12
2019-03-29T11:09:48.535Z,16.14
2019-03-29T11:10:48.531Z,16.07
2019-03-29T11:11:48.508Z,16.09
2019-03-29T11:12:48.496Z,16.15
2019-03-29T11:13:48.488Z,16.11
2019-03-29T11:14:48.476Z,16.16
2019-03-29T11:15:48.464Z,16.16
2019-03-29T11:16:48.465Z,16.18
2019-03-29T11:17:48.444Z,16.20
2019-03-29T11:18:48.432Z,16.20
2019-03-29T11:19:48.420Z,16.31
2019-03-29T11:20:48.420Z,16.38
2019-03-29T11:21:48.398Z,16.33
2019-03-29T11:22:48.400Z,16.26
2019-03-29T11:23:48.378Z,16.30
2019-03-29T11:24:48.366Z,16.23
2019-03-29T11:25:48.955Z,16.18
2019-03-29T11:26:48.344Z,16.16
2019-03-29T11:27:48.334Z,16.06
2019-03-29T11:28:48.337Z,16.04
2019-03-29T11:29:48.313Z,15.88
2019-03-29T11:30:48.302Z,15.89
2019-03-29T11:31:48.291Z,15.86
2019-03-29T11:32:48.281Z,15.92
2019-03-29T11:33:48.270Z,16.00
2019-03-29T11:34:48.269Z,16.00
2019-03-29T11:35:48.248Z,16.12
2019-03-29T11:36:48.238Z,16.12
2019-03-29T11:37:48.227Z,16.20
2019-03-29T11:38:48.219Z,16.23
2019-03-29T11:39:48.205Z,16.15
2019-03-29T11:40:48.242Z,16.22
2019-03-29T11:41:48.184Z,16.20
2019-03-29T11:42:48.173Z,16.34
2019-03-29T11:43:48.162Z,16.23
2019-03-29T11:44:48.151Z,16.31
2019-03-29T11:45:48.140Z,16.27
2019-03-29T11:46:48.143Z,16.35
2019-03-29T11:47:48.118Z,16.37
2019-03-29T11:48:48.107Z,16.35
2019-03-29T11:49:48.097Z,16.38
2019-03-29T11:50:48.086Z,16.40
2019-03-29T11:51:48.076Z,16.27
2019-03-29T11:52:48.088Z,16.15
2019-03-29T11:53:50.851Z,16.04
2019-03-29T11:54:48.043Z,16.15
2019-03-29T11:55:48.034Z,16.15
2019-03-29T11:56:48.022Z,16.14
2019-03-29T11:57:48.013Z,16.15
2019-03-29T11:58:48.016Z,16.07
2019-03-29T11:59:47.990Z,16.06
2019-03-29T12:00:47.980Z,16.07
2019-03-29T12:01:47.970Z,16.09
2019-03-29T12:02:47.958Z,16.03
2019-03-29T12:03:47.947Z,16.11
2019-03-29T12:04:47.946Z,16.16
2019-03-29T12:05:47.927Z,16.23
2019-03-29T12:06:47.914Z,16.11
2019-03-29T12:07:47.903Z,16.06
2019-03-29T12:08:47.892Z,16.04
2019-03-29T12:09:47.881Z,16.14
2019-03-29T12:10:47.883Z,16.18
2019-03-29T12:11:47.861Z,16.15
2019-03-29T12:12:47.848Z,16.09
2019-03-29T12:13:47.838Z,16.04
2019-03-29T12:14:47.827Z,16.12
2019-03-29T12:15:47.816Z,16.11
2019-03-29T12:16:47.815Z,16.07
2019-03-29T12:17:47.795Z,16.00
2019-03-29T12:18:47.784Z,15.93
2019-03-29T12:19:47.773Z,15.89
2019-03-29T12:20:47.769Z,15.86
2019-03-29T12:21:47.753Z,16.06
2019-03-29T12:22:47.751Z,16.03
2019-03-29T12:23:47.730Z,16.09
2019-03-29T12:24:47.718Z,16.22
2019-03-29T12:25:47.709Z,16.22
2019-03-29T12:26:47.699Z,16.14
2019-03-29T12:27:47.686Z,16.31
2019-03-29T12:28:47.686Z,16.30
2019-03-29T12:29:47.668Z,16.31
2019-03-29T12:30:47.653Z,16.31
2019-03-29T12:31:47.645Z,16.34
2019-03-29T12:32:47.633Z,16.26
2019-03-29T12:33:47.620Z,16.30
2019-03-29T12:34:47.622Z,16.41
2019-03-29T12:35:47.599Z,16.55
2019-03-29T12:36:47.588Z,16.62
2019-03-29T12:37:47.577Z,16.68
2019-03-29T12:38:47.567Z,16.71
2019-03-29T12:39:47.556Z,16.71
2019-03-29T12:40:47.557Z,16.73
2019-03-29T12:41:47.534Z,16.85
2019-03-29T12:42:47.523Z,16.75
2019-03-29T12:43:55.369Z,16.68
2019-03-29T12:44:48.500Z,16.60
2019-03-29T12:45:47.500Z,16.56
2019-03-29T12:46:47.490Z,16.52
2019-03-29T12:47:47.469Z,16.40
2019-03-29T12:48:50.131Z,16.33
2019-03-29T12:49:47.447Z,16.41
2019-03-29T12:50:47.438Z,16.53
2019-03-29T12:51:47.426Z,16.60
2019-03-29T12:52:47.432Z,16.70
2019-03-29T12:53:47.403Z,16.73
2019-03-29T12:54:47.393Z,16.80
2019-03-29T12:55:47.382Z,16.77
2019-03-29T12:56:47.372Z,16.75
2019-03-29T12:57:47.363Z,16.77
2019-03-29T12:58:47.367Z,16.77
2019-03-29T12:59:47.343Z,16.67
2019-03-29T13:00:47.348Z,16.74
2019-03-29T13:01:47.319Z,16.73
2019-03-29T13:02:47.307Z,16.83
2019-03-29T13:03:47.314Z,16.85
2019-03-29T13:04:47.406Z,16.98
2019-03-29T13:05:47.274Z,17.00
2019-03-29T13:06:47.266Z,17.00